sensor_id;sensor_type;location;lat;lon;timestamp;P1;durP1;ratioP1;P2;durP2;ratioP2
595;SDS011;19946;49.306;11.350;2022-07-10T00:02:45;3.10;;;3.10;;
595;SDS011;19946;49.306;11.350;2022-07-10T00:05:46;3.30;;;3.30;;
595;SDS011;19946;49.306;11.350;2022-07-10T00:08:48;4.00;;;3.90;;
595;SDS011;19946;49.306;11.350;2022-07-10T00:11:48;3.90;;;3.90;;
595;SDS011;19946;49.306;11.350;2022-07-10T00:14:49;3.30;;;3.30;;
595;SDS011;19946;49.306;11.350;2022-07-10T00:17:49;3.73;;;3.73;;
595;SDS011;19946;49.306;11.350;2022-07-10T00:20:50;3.17;;;3.17;;
595;SDS011;19946;49.306;11.350;2022-07-10T00:23:50;2.90;;;2.90;;
595;SDS011;19946;49.306;11.350;2022-07-10T00:26:50;3.30;;;3.20;;
595;SDS011;19946;49.306;11.350;2022-07-10T00:29:51;2.90;;;2.90;;
595;SDS011;19946;49.306;11.350;2022-07-10T00:32:52;2.80;;;2.80;;
595;SDS011;19946;49.306;11.350;2022-07-10T00:35:52;2.63;;;2.63;;
595;SDS011;19946;49.306;11.350;2022-07-10T00:38:53;2.70;;;2.70;;
595;SDS011;19946;49.306;11.350;2022-07-10T00:41:53;2.70;;;2.70;;
595;SDS011;19946;49.306;11.350;2022-07-10T00:44:53;2.93;;;2.93;;
595;SDS011;19946;49.306;11.350;2022-07-10T00:47:54;3.20;;;3.20;;
595;SDS011;19946;49.306;11.350;2022-07-10T00:50:54;3.33;;;3.33;;
595;SDS011;19946;49.306;11.350;2022-07-10T00:53:54;3.50;;;3.50;;
595;SDS011;19946;49.306;11.350;2022-07-10T00:56:56;3.50;;;3.50;;
595;SDS011;19946;49.306;11.350;2022-07-10T00:59:57;3.50;;;3.50;;
595;SDS011;19946;49.306;11.350;2022-07-10T01:02:58;3.90;;;3.90;;
595;SDS011;19946;49.306;11.350;2022-07-10T01:05:58;4.17;;;4.17;;
595;SDS011;19946;49.306;11.350;2022-07-10T01:08:58;4.33;;;4.33;;
595;SDS011;19946;49.306;11.350;2022-07-10T01:12:04;4.00;;;4.00;;
595;SDS011;19946;49.306;11.350;2022-07-10T01:15:05;3.60;;;3.60;;
595;SDS011;19946;49.306;11.350;2022-07-10T01:18:06;2.83;;;2.83;;
595;SDS011;19946;49.306;11.350;2022-07-10T01:21:22;2.70;;;2.70;;
595;SDS011;19946;49.306;11.350;2022-07-10T01:24:23;2.80;;;2.80;;
595;SDS011;19946;49.306;11.350;2022-07-10T01:27:24;3.00;;;3.00;;
595;SDS011;19946;49.306;11.350;2022-07-10T01:30:25;2.20;;;2.20;;
595;SDS011;19946;49.306;11.350;2022-07-10T01:33:26;2.40;;;2.40;;
595;SDS011;19946;49.306;11.350;2022-07-10T01:36:27;2.43;;;2.43;;
595;SDS011;19946;49.306;11.350;2022-07-10T01:39:28;2.60;;;2.60;;
595;SDS011;19946;49.306;11.350;2022-07-10T01:42:29;2.23;;;2.23;;
595;SDS011;19946;49.306;11.350;2022-07-10T01:45:29;1.80;;;1.80;;
595;SDS011;19946;49.306;11.350;2022-07-10T01:48:30;1.50;;;1.50;;
595;SDS011;19946;49.306;11.350;2022-07-10T01:51:30;1.20;;;1.20;;
595;SDS011;19946;49.306;11.350;2022-07-10T01:54:31;1.83;;;1.83;;
595;SDS011;19946;49.306;11.350;2022-07-10T01:57:34;1.67;;;1.67;;
595;SDS011;19946;49.306;11.350;2022-07-10T02:00:34;1.73;;;1.73;;
595;SDS011;19946;49.306;11.350;2022-07-10T02:03:35;1.90;;;1.90;;
595;SDS011;19946;49.306;11.350;2022-07-10T02:07:11;2.37;;;2.37;;
595;SDS011;19946;49.306;11.350;2022-07-10T02:10:13;2.10;;;2.10;;
595;SDS011;19946;49.306;11.350;2022-07-10T02:13:13;2.10;;;2.10;;
595;SDS011;19946;49.306;11.350;2022-07-10T02:16:14;1.73;;;1.73;;
595;SDS011;19946;49.306;11.350;2022-07-10T02:19:15;1.80;;;1.80;;
595;SDS011;19946;49.306;11.350;2022-07-10T02:22:15;1.20;;;1.20;;
595;SDS011;19946;49.306;11.350;2022-07-10T02:25:16;1.10;;;1.10;;
595;SDS011;19946;49.306;11.350;2022-07-10T02:28:16;1.23;;;1.23;;
595;SDS011;19946;49.306;11.350;2022-07-10T02:31:16;1.13;;;1.13;;
595;SDS011;19946;49.306;11.350;2022-07-10T02:34:17;1.20;;;1.20;;
595;SDS011;19946;49.306;11.350;2022-07-10T02:37:17;1.30;;;1.30;;
595;SDS011;19946;49.306;11.350;2022-07-10T02:40:17;1.20;;;1.20;;
595;SDS011;19946;49.306;11.350;2022-07-10T02:43:20;1.30;;;1.30;;
595;SDS011;19946;49.306;11.350;2022-07-10T02:46:21;1.00;;;1.00;;
595;SDS011;19946;49.306;11.350;2022-07-10T02:49:21;1.20;;;1.20;;
595;SDS011;19946;49.306;11.350;2022-07-10T02:52:21;1.30;;;1.30;;
595;SDS011;19946;49.306;11.350;2022-07-10T02:55:22;1.30;;;1.30;;
595;SDS011;19946;49.306;11.350;2022-07-10T02:58:22;0.90;;;0.90;;
595;SDS011;19946;49.306;11.350;2022-07-10T03:01:23;1.30;;;1.30;;
595;SDS011;19946;49.306;11.350;2022-07-10T03:04:23;1.40;;;1.40;;
595;SDS011;19946;49.306;11.350;2022-07-10T03:07:23;1.30;;;1.30;;
595;SDS011;19946;49.306;11.350;2022-07-10T03:10:24;1.43;;;1.43;;
595;SDS011;19946;49.306;11.350;2022-07-10T03:13:24;1.40;;;1.40;;
595;SDS011;19946;49.306;11.350;2022-07-10T03:16:25;1.20;;;1.20;;
595;SDS011;19946;49.306;11.350;2022-07-10T03:19:25;1.27;;;1.27;;
595;SDS011;19946;49.306;11.350;2022-07-10T03:22:25;1.70;;;1.70;;
595;SDS011;19946;49.306;11.350;2022-07-10T03:25:27;1.90;;;1.90;;
595;SDS011;19946;49.306;11.350;2022-07-10T03:28:27;1.37;;;1.37;;
595;SDS011;19946;49.306;11.350;2022-07-10T03:31:27;1.30;;;1.30;;
595;SDS011;19946;49.306;11.350;2022-07-10T03:34:28;1.40;;;1.40;;
595;SDS011;19946;49.306;11.350;2022-07-10T03:37:28;1.70;;;1.70;;
595;SDS011;19946;49.306;11.350;2022-07-10T03:40:28;1.80;;;1.80;;
595;SDS011;19946;49.306;11.350;2022-07-10T03:43:29;1.93;;;1.93;;
595;SDS011;19946;49.306;11.350;2022-07-10T03:46:29;1.80;;;1.80;;
595;SDS011;19946;49.306;11.350;2022-07-10T03:49:29;1.77;;;1.77;;
595;SDS011;19946;49.306;11.350;2022-07-10T03:52:30;1.70;;;1.70;;
595;SDS011;19946;49.306;11.350;2022-07-10T03:55:31;1.80;;;1.80;;
595;SDS011;19946;49.306;11.350;2022-07-10T03:58:31;2.00;;;2.00;;
595;SDS011;19946;49.306;11.350;2022-07-10T04:01:31;2.17;;;2.17;;
595;SDS011;19946;49.306;11.350;2022-07-10T04:04:32;2.03;;;2.03;;
595;SDS011;19946;49.306;11.350;2022-07-10T04:07:32;1.80;;;1.80;;
595;SDS011;19946;49.306;11.350;2022-07-10T04:10:33;2.00;;;2.00;;
595;SDS011;19946;49.306;11.350;2022-07-10T04:13:33;2.00;;;2.00;;
595;SDS011;19946;49.306;11.350;2022-07-10T04:16:34;2.00;;;2.00;;
595;SDS011;19946;49.306;11.350;2022-07-10T04:19:34;2.30;;;2.30;;
595;SDS011;19946;49.306;11.350;2022-07-10T04:22:34;2.50;;;2.50;;
595;SDS011;19946;49.306;11.350;2022-07-10T04:25:35;2.63;;;2.63;;
595;SDS011;19946;49.306;11.350;2022-07-10T04:28:35;2.60;;;2.60;;
595;SDS011;19946;49.306;11.350;2022-07-10T04:31:36;3.10;;;3.10;;
595;SDS011;19946;49.306;11.350;2022-07-10T04:34:36;3.60;;;3.60;;
595;SDS011;19946;49.306;11.350;2022-07-10T04:37:37;4.40;;;4.40;;
595;SDS011;19946;49.306;11.350;2022-07-10T04:40:37;4.60;;;4.60;;
595;SDS011;19946;49.306;11.350;2022-07-10T04:43:38;5.20;;;5.20;;
595;SDS011;19946;49.306;11.350;2022-07-10T04:46:38;6.03;;;5.93;;
595;SDS011;19946;49.306;11.350;2022-07-10T04:49:38;5.90;;;5.80;;
595;SDS011;19946;49.306;11.350;2022-07-10T04:52:39;5.50;;;5.50;;
595;SDS011;19946;49.306;11.350;2022-07-10T04:55:39;6.47;;;6.37;;
595;SDS011;19946;49.306;11.350;2022-07-10T04:58:40;7.33;;;7.23;;
595;SDS011;19946;49.306;11.350;2022-07-10T05:01:40;7.83;;;7.73;;
595;SDS011;19946;49.306;11.350;2022-07-10T05:04:41;7.70;;;7.60;;
595;SDS011;19946;49.306;11.350;2022-07-10T05:07:42;7.90;;;7.80;;
595;SDS011;19946;49.306;11.350;2022-07-10T05:10:42;7.90;;;7.80;;
595;SDS011;19946;49.306;11.350;2022-07-10T05:13:42;7.00;;;6.90;;
595;SDS011;19946;49.306;11.350;2022-07-10T05:16:46;7.30;;;7.20;;
595;SDS011;19946;49.306;11.350;2022-07-10T05:19:46;7.60;;;7.50;;
595;SDS011;19946;49.306;11.350;2022-07-10T05:22:46;7.30;;;7.20;;
595;SDS011;19946;49.306;11.350;2022-07-10T05:25:47;8.10;;;8.00;;
595;SDS011;19946;49.306;11.350;2022-07-10T05:28:47;9.20;;;9.00;;
595;SDS011;19946;49.306;11.350;2022-07-10T05:31:48;10.40;;;10.20;;
595;SDS011;19946;49.306;11.350;2022-07-10T05:34:48;9.80;;;9.60;;
595;SDS011;19946;49.306;11.350;2022-07-10T05:37:49;11.40;;;11.20;;
595;SDS011;19946;49.306;11.350;2022-07-10T05:40:49;11.10;;;10.90;;
595;SDS011;19946;49.306;11.350;2022-07-10T05:43:50;11.20;;;11.00;;
595;SDS011;19946;49.306;11.350;2022-07-10T05:46:50;10.80;;;10.60;;
595;SDS011;19946;49.306;11.350;2022-07-10T05:49:51;10.70;;;10.50;;
595;SDS011;19946;49.306;11.350;2022-07-10T05:52:51;10.80;;;10.60;;
595;SDS011;19946;49.306;11.350;2022-07-10T05:55:52;10.20;;;10.00;;
595;SDS011;19946;49.306;11.350;2022-07-10T05:58:52;10.03;;;9.83;;
595;SDS011;19946;49.306;11.350;2022-07-10T06:01:55;10.90;;;10.70;;
595;SDS011;19946;49.306;11.350;2022-07-10T06:04:56;11.00;;;10.80;;
595;SDS011;19946;49.306;11.350;2022-07-10T06:07:56;10.63;;;10.43;;
595;SDS011;19946;49.306;11.350;2022-07-10T06:10:56;11.60;;;11.30;;
595;SDS011;19946;49.306;11.350;2022-07-10T06:13:57;11.53;;;11.23;;
595;SDS011;19946;49.306;11.350;2022-07-10T06:16:59;11.20;;;11.00;;
595;SDS011;19946;49.306;11.350;2022-07-10T06:20:00;11.63;;;11.33;;
595;SDS011;19946;49.306;11.350;2022-07-10T06:23:00;11.90;;;11.60;;
595;SDS011;19946;49.306;11.350;2022-07-10T06:26:00;12.03;;;11.73;;
595;SDS011;19946;49.306;11.350;2022-07-10T06:29:01;12.00;;;11.70;;
595;SDS011;19946;49.306;11.350;2022-07-10T06:32:01;12.30;;;12.00;;
595;SDS011;19946;49.306;11.350;2022-07-10T06:35:02;13.80;;;13.40;;
595;SDS011;19946;49.306;11.350;2022-07-10T06:38:03;14.30;;;13.90;;
595;SDS011;19946;49.306;11.350;2022-07-10T06:41:04;13.90;;;13.50;;
595;SDS011;19946;49.306;11.350;2022-07-10T06:44:04;14.20;;;13.80;;
595;SDS011;19946;49.306;11.350;2022-07-10T06:47:06;14.03;;;13.63;;
595;SDS011;19946;49.306;11.350;2022-07-10T06:50:25;14.00;;;13.60;;
595;SDS011;19946;49.306;11.350;2022-07-10T06:53:29;14.47;;;14.07;;
595;SDS011;19946;49.306;11.350;2022-07-10T06:56:30;15.07;;;14.67;;
595;SDS011;19946;49.306;11.350;2022-07-10T06:59:30;15.90;;;15.40;;
595;SDS011;19946;49.306;11.350;2022-07-10T07:02:30;15.90;;;15.40;;
595;SDS011;19946;49.306;11.350;2022-07-10T07:05:31;16.20;;;15.70;;
595;SDS011;19946;49.306;11.350;2022-07-10T07:08:31;16.80;;;16.30;;
595;SDS011;19946;49.306;11.350;2022-07-10T07:11:32;17.20;;;16.60;;
595;SDS011;19946;49.306;11.350;2022-07-10T07:14:32;16.23;;;15.73;;
595;SDS011;19946;49.306;11.350;2022-07-10T07:17:38;15.10;;;14.70;;
595;SDS011;19946;49.306;11.350;2022-07-10T07:20:56;14.27;;;13.87;;
595;SDS011;19946;49.306;11.350;2022-07-10T07:24:15;14.60;;;14.20;;
595;SDS011;19946;49.306;11.350;2022-07-10T07:27:15;15.17;;;14.77;;
595;SDS011;19946;49.306;11.350;2022-07-10T07:30:16;16.17;;;15.67;;
595;SDS011;19946;49.306;11.350;2022-07-10T07:33:17;15.30;;;14.90;;
595;SDS011;19946;49.306;11.350;2022-07-10T07:36:17;14.70;;;14.30;;
595;SDS011;19946;49.306;11.350;2022-07-10T07:39:18;14.00;;;13.60;;
595;SDS011;19946;49.306;11.350;2022-07-10T07:42:18;13.90;;;13.60;;
595;SDS011;19946;49.306;11.350;2022-07-10T07:45:19;14.70;;;14.30;;
595;SDS011;19946;49.306;11.350;2022-07-10T07:48:20;15.30;;;14.90;;
595;SDS011;19946;49.306;11.350;2022-07-10T07:51:20;16.20;;;15.70;;
595;SDS011;19946;49.306;11.350;2022-07-10T07:54:20;16.60;;;16.10;;
595;SDS011;19946;49.306;11.350;2022-07-10T07:57:21;16.90;;;16.40;;
595;SDS011;19946;49.306;11.350;2022-07-10T08:00:22;15.70;;;15.30;;
595;SDS011;19946;49.306;11.350;2022-07-10T08:03:23;15.10;;;14.70;;
595;SDS011;19946;49.306;11.350;2022-07-10T08:06:24;14.80;;;14.40;;
595;SDS011;19946;49.306;11.350;2022-07-10T08:09:24;14.30;;;13.90;;
595;SDS011;19946;49.306;11.350;2022-07-10T08:12:25;13.90;;;13.50;;
595;SDS011;19946;49.306;11.350;2022-07-10T08:15:25;13.90;;;13.50;;
595;SDS011;19946;49.306;11.350;2022-07-10T08:18:25;14.47;;;14.07;;
595;SDS011;19946;49.306;11.350;2022-07-10T08:21:26;13.60;;;13.30;;
595;SDS011;19946;49.306;11.350;2022-07-10T08:24:26;13.60;;;13.30;;
595;SDS011;19946;49.306;11.350;2022-07-10T08:27:27;14.60;;;14.20;;
595;SDS011;19946;49.306;11.350;2022-07-10T08:30:27;15.30;;;14.90;;
595;SDS011;19946;49.306;11.350;2022-07-10T08:33:28;16.40;;;15.90;;
595;SDS011;19946;49.306;11.350;2022-07-10T08:36:28;17.00;;;16.50;;
595;SDS011;19946;49.306;11.350;2022-07-10T08:39:29;17.60;;;17.10;;
595;SDS011;19946;49.306;11.350;2022-07-10T08:42:29;16.90;;;16.40;;
595;SDS011;19946;49.306;11.350;2022-07-10T08:45:32;16.30;;;15.80;;
595;SDS011;19946;49.306;11.350;2022-07-10T08:48:36;16.00;;;15.50;;
595;SDS011;19946;49.306;11.350;2022-07-10T08:51:51;16.10;;;15.60;;
595;SDS011;19946;49.306;11.350;2022-07-10T08:54:57;17.37;;;16.87;;
595;SDS011;19946;49.306;11.350;2022-07-10T08:57:58;17.20;;;16.70;;
595;SDS011;19946;49.306;11.350;2022-07-10T09:00:59;17.40;;;16.90;;
595;SDS011;19946;49.306;11.350;2022-07-10T09:04:00;17.60;;;17.10;;
595;SDS011;19946;49.306;11.350;2022-07-10T09:07:00;17.37;;;16.87;;
595;SDS011;19946;49.306;11.350;2022-07-10T09:10:04;20.53;;;19.90;;
595;SDS011;19946;49.306;11.350;2022-07-10T09:13:07;17.30;;;16.80;;
595;SDS011;19946;49.306;11.350;2022-07-10T09:16:07;17.30;;;16.80;;
595;SDS011;19946;49.306;11.350;2022-07-10T09:19:21;17.40;;;16.90;;
595;SDS011;19946;49.306;11.350;2022-07-10T09:22:23;18.40;;;17.80;;
595;SDS011;19946;49.306;11.350;2022-07-10T09:25:29;18.50;;;17.90;;
595;SDS011;19946;49.306;11.350;2022-07-10T09:28:31;18.70;;;18.10;;
595;SDS011;19946;49.306;11.350;2022-07-10T09:31:31;18.27;;;17.67;;
595;SDS011;19946;49.306;11.350;2022-07-10T09:34:49;18.07;;;17.50;;
595;SDS011;19946;49.306;11.350;2022-07-10T09:38:12;18.10;;;17.50;;
595;SDS011;19946;49.306;11.350;2022-07-10T09:41:13;17.97;;;17.37;;
595;SDS011;19946;49.306;11.350;2022-07-10T09:44:18;17.90;;;17.40;;
595;SDS011;19946;49.306;11.350;2022-07-10T09:47:22;17.87;;;17.37;;
595;SDS011;19946;49.306;11.350;2022-07-10T09:53:33;17.50;;;17.00;;
595;SDS011;19946;49.306;11.350;2022-07-10T09:56:41;17.50;;;17.00;;
595;SDS011;19946;49.306;11.350;2022-07-10T09:59:42;16.97;;;16.47;;
595;SDS011;19946;49.306;11.350;2022-07-10T10:02:44;16.60;;;16.10;;
595;SDS011;19946;49.306;11.350;2022-07-10T10:05:55;16.70;;;16.20;;
595;SDS011;19946;49.306;11.350;2022-07-10T10:09:04;16.80;;;16.30;;
595;SDS011;19946;49.306;11.350;2022-07-10T10:12:17;16.63;;;16.13;;
595;SDS011;19946;49.306;11.350;2022-07-10T10:15:25;17.20;;;16.70;;
595;SDS011;19946;49.306;11.350;2022-07-10T10:18:26;17.63;;;17.13;;
595;SDS011;19946;49.306;11.350;2022-07-10T10:21:27;17.03;;;16.53;;
595;SDS011;19946;49.306;11.350;2022-07-10T10:24:28;16.00;;;15.60;;
595;SDS011;19946;49.306;11.350;2022-07-10T10:27:31;16.00;;;15.60;;
595;SDS011;19946;49.306;11.350;2022-07-10T10:30:34;15.80;;;15.40;;
595;SDS011;19946;49.306;11.350;2022-07-10T10:33:41;16.23;;;15.83;;
595;SDS011;19946;49.306;11.350;2022-07-10T10:36:45;16.20;;;15.80;;
595;SDS011;19946;49.306;11.350;2022-07-10T10:39:55;16.97;;;16.47;;
595;SDS011;19946;49.306;11.350;2022-07-10T10:42:58;16.90;;;16.40;;
595;SDS011;19946;49.306;11.350;2022-07-10T10:45:58;16.00;;;15.60;;
595;SDS011;19946;49.306;11.350;2022-07-10T10:49:25;15.90;;;15.50;;
595;SDS011;19946;49.306;11.350;2022-07-10T10:52:25;15.50;;;15.10;;
595;SDS011;19946;49.306;11.350;2022-07-10T10:55:27;15.30;;;14.90;;
595;SDS011;19946;49.306;11.350;2022-07-10T10:58:28;14.90;;;14.50;;
595;SDS011;19946;49.306;11.350;2022-07-10T11:01:35;14.90;;;14.50;;
595;SDS011;19946;49.306;11.350;2022-07-10T11:04:36;15.13;;;14.73;;
595;SDS011;19946;49.306;11.350;2022-07-10T11:07:52;15.40;;;15.00;;
595;SDS011;19946;49.306;11.350;2022-07-10T11:10:53;15.30;;;14.90;;
595;SDS011;19946;49.306;11.350;2022-07-10T11:13:56;17.60;;;17.10;;
595;SDS011;19946;49.306;11.350;2022-07-10T11:16:57;15.60;;;15.20;;
595;SDS011;19946;49.306;11.350;2022-07-10T11:19:57;15.40;;;15.00;;
595;SDS011;19946;49.306;11.350;2022-07-10T11:23:06;15.20;;;14.80;;
595;SDS011;19946;49.306;11.350;2022-07-10T11:26:20;15.40;;;15.00;;
595;SDS011;19946;49.306;11.350;2022-07-10T11:29:24;15.20;;;14.80;;
595;SDS011;19946;49.306;11.350;2022-07-10T11:32:24;14.80;;;14.40;;
595;SDS011;19946;49.306;11.350;2022-07-10T11:35:25;14.60;;;14.20;;
595;SDS011;19946;49.306;11.350;2022-07-10T11:38:25;14.40;;;14.10;;
595;SDS011;19946;49.306;11.350;2022-07-10T11:41:26;14.30;;;14.00;;
595;SDS011;19946;49.306;11.350;2022-07-10T11:44:27;14.80;;;14.40;;
595;SDS011;19946;49.306;11.350;2022-07-10T11:47:28;14.70;;;14.30;;
595;SDS011;19946;49.306;11.350;2022-07-10T11:50:36;14.30;;;14.00;;
595;SDS011;19946;49.306;11.350;2022-07-10T11:53:37;14.10;;;13.80;;
595;SDS011;19946;49.306;11.350;2022-07-10T11:56:38;14.60;;;14.20;;
595;SDS011;19946;49.306;11.350;2022-07-10T11:59:43;14.53;;;14.13;;
595;SDS011;19946;49.306;11.350;2022-07-10T12:02:44;14.10;;;13.80;;
595;SDS011;19946;49.306;11.350;2022-07-10T12:05:44;13.80;;;13.50;;
595;SDS011;19946;49.306;11.350;2022-07-10T12:08:45;14.10;;;13.80;;
595;SDS011;19946;49.306;11.350;2022-07-10T12:12:03;13.80;;;13.50;;
595;SDS011;19946;49.306;11.350;2022-07-10T12:15:05;13.80;;;13.50;;
595;SDS011;19946;49.306;11.350;2022-07-10T12:18:07;13.90;;;13.60;;
595;SDS011;19946;49.306;11.350;2022-07-10T12:21:09;13.70;;;13.40;;
595;SDS011;19946;49.306;11.350;2022-07-10T12:24:10;13.73;;;13.43;;
595;SDS011;19946;49.306;11.350;2022-07-10T12:27:12;13.57;;;13.27;;
595;SDS011;19946;49.306;11.350;2022-07-10T12:30:39;13.60;;;13.30;;
595;SDS011;19946;49.306;11.350;2022-07-10T12:33:41;13.60;;;13.30;;
595;SDS011;19946;49.306;11.350;2022-07-10T12:39:50;14.20;;;13.90;;
595;SDS011;19946;49.306;11.350;2022-07-10T12:43:03;14.00;;;13.70;;
595;SDS011;19946;49.306;11.350;2022-07-10T12:46:14;14.27;;;13.97;;
595;SDS011;19946;49.306;11.350;2022-07-10T12:49:19;13.70;;;13.40;;
595;SDS011;19946;49.306;11.350;2022-07-10T12:52:26;13.70;;;13.40;;
595;SDS011;19946;49.306;11.350;2022-07-10T12:55:34;13.60;;;13.30;;
595;SDS011;19946;49.306;11.350;2022-07-10T12:58:42;13.30;;;13.00;;
595;SDS011;19946;49.306;11.350;2022-07-10T13:01:44;13.37;;;13.07;;
595;SDS011;19946;49.306;11.350;2022-07-10T13:04:57;13.67;;;13.37;;
595;SDS011;19946;49.306;11.350;2022-07-10T13:08:08;13.60;;;13.30;;
595;SDS011;19946;49.306;11.350;2022-07-10T13:11:11;13.73;;;13.43;;
595;SDS011;19946;49.306;11.350;2022-07-10T13:14:11;13.07;;;12.77;;
595;SDS011;19946;49.306;11.350;2022-07-10T13:17:12;13.40;;;13.10;;
595;SDS011;19946;49.306;11.350;2022-07-10T13:20:12;13.23;;;12.93;;
595;SDS011;19946;49.306;11.350;2022-07-10T13:23:12;13.10;;;12.80;;
595;SDS011;19946;49.306;11.350;2022-07-10T13:26:13;13.33;;;13.03;;
595;SDS011;19946;49.306;11.350;2022-07-10T13:29:13;13.70;;;13.40;;
595;SDS011;19946;49.306;11.350;2022-07-10T13:32:13;13.70;;;13.40;;
595;SDS011;19946;49.306;11.350;2022-07-10T13:35:14;13.77;;;13.47;;
595;SDS011;19946;49.306;11.350;2022-07-10T13:38:14;13.30;;;13.00;;
595;SDS011;19946;49.306;11.350;2022-07-10T13:41:18;13.30;;;13.00;;
595;SDS011;19946;49.306;11.350;2022-07-10T13:44:19;13.47;;;13.17;;
595;SDS011;19946;49.306;11.350;2022-07-10T13:47:20;13.40;;;13.10;;
595;SDS011;19946;49.306;11.350;2022-07-10T13:50:20;13.20;;;12.90;;
595;SDS011;19946;49.306;11.350;2022-07-10T13:53:20;13.10;;;12.80;;
595;SDS011;19946;49.306;11.350;2022-07-10T13:56:21;13.67;;;13.37;;
595;SDS011;19946;49.306;11.350;2022-07-10T13:59:22;13.50;;;13.20;;
595;SDS011;19946;49.306;11.350;2022-07-10T14:02:23;13.80;;;13.50;;
595;SDS011;19946;49.306;11.350;2022-07-10T14:05:23;14.00;;;13.70;;
595;SDS011;19946;49.306;11.350;2022-07-10T14:08:24;13.77;;;13.47;;
595;SDS011;19946;49.306;11.350;2022-07-10T14:11:25;13.70;;;13.40;;
595;SDS011;19946;49.306;11.350;2022-07-10T14:14:26;13.43;;;13.13;;
595;SDS011;19946;49.306;11.350;2022-07-10T14:17:26;13.00;;;12.70;;
595;SDS011;19946;49.306;11.350;2022-07-10T14:20:29;13.10;;;12.80;;
595;SDS011;19946;49.306;11.350;2022-07-10T14:23:51;13.07;;;12.77;;
595;SDS011;19946;49.306;11.350;2022-07-10T14:26:51;12.90;;;12.60;;
595;SDS011;19946;49.306;11.350;2022-07-10T14:29:54;12.60;;;12.30;;
595;SDS011;19946;49.306;11.350;2022-07-10T14:32:54;12.60;;;12.30;;
595;SDS011;19946;49.306;11.350;2022-07-10T14:35:58;12.50;;;12.20;;
595;SDS011;19946;49.306;11.350;2022-07-10T14:39:02;12.70;;;12.40;;
595;SDS011;19946;49.306;11.350;2022-07-10T14:42:03;12.50;;;12.20;;
595;SDS011;19946;49.306;11.350;2022-07-10T14:45:05;12.30;;;12.00;;
595;SDS011;19946;49.306;11.350;2022-07-10T14:48:06;12.80;;;12.50;;
595;SDS011;19946;49.306;11.350;2022-07-10T14:51:06;11.97;;;11.77;;
595;SDS011;19946;49.306;11.350;2022-07-10T14:54:07;11.93;;;11.73;;
595;SDS011;19946;49.306;11.350;2022-07-10T14:57:09;11.37;;;11.17;;
595;SDS011;19946;49.306;11.350;2022-07-10T15:00:09;11.20;;;11.00;;
595;SDS011;19946;49.306;11.350;2022-07-10T15:03:10;11.60;;;11.40;;
595;SDS011;19946;49.306;11.350;2022-07-10T15:06:10;11.50;;;11.30;;
595;SDS011;19946;49.306;11.350;2022-07-10T15:09:11;12.20;;;11.90;;
595;SDS011;19946;49.306;11.350;2022-07-10T15:12:12;13.03;;;12.73;;
595;SDS011;19946;49.306;11.350;2022-07-10T15:15:13;12.70;;;12.40;;
595;SDS011;19946;49.306;11.350;2022-07-10T15:18:13;12.50;;;12.20;;
595;SDS011;19946;49.306;11.350;2022-07-10T15:21:14;11.73;;;11.53;;
595;SDS011;19946;49.306;11.350;2022-07-10T15:24:15;11.83;;;11.63;;
595;SDS011;19946;49.306;11.350;2022-07-10T15:27:15;11.70;;;11.50;;
595;SDS011;19946;49.306;11.350;2022-07-10T15:30:15;11.50;;;11.30;;
595;SDS011;19946;49.306;11.350;2022-07-10T15:33:16;11.50;;;11.30;;
595;SDS011;19946;49.306;11.350;2022-07-10T15:36:17;12.30;;;12.00;;
595;SDS011;19946;49.306;11.350;2022-07-10T15:39:19;12.27;;;11.97;;
595;SDS011;19946;49.306;11.350;2022-07-10T15:42:20;12.10;;;11.80;;
595;SDS011;19946;49.306;11.350;2022-07-10T15:45:20;12.40;;;12.10;;
595;SDS011;19946;49.306;11.350;2022-07-10T15:48:21;12.50;;;12.20;;
595;SDS011;19946;49.306;11.350;2022-07-10T15:51:22;12.20;;;11.90;;
595;SDS011;19946;49.306;11.350;2022-07-10T15:54:23;11.70;;;11.50;;
595;SDS011;19946;49.306;11.350;2022-07-10T15:57:23;11.70;;;11.50;;
595;SDS011;19946;49.306;11.350;2022-07-10T16:00:23;11.50;;;11.30;;
595;SDS011;19946;49.306;11.350;2022-07-10T16:03:24;11.50;;;11.30;;
595;SDS011;19946;49.306;11.350;2022-07-10T16:06:24;11.50;;;11.30;;
595;SDS011;19946;49.306;11.350;2022-07-10T16:09:25;11.43;;;11.23;;
595;SDS011;19946;49.306;11.350;2022-07-10T16:12:25;11.70;;;11.50;;
595;SDS011;19946;49.306;11.350;2022-07-10T16:15:26;11.70;;;11.50;;
595;SDS011;19946;49.306;11.350;2022-07-10T16:18:26;11.03;;;10.83;;
595;SDS011;19946;49.306;11.350;2022-07-10T16:25:08;10.40;;;10.20;;
595;SDS011;19946;49.306;11.350;2022-07-10T16:29:02;10.70;;;10.50;;
595;SDS011;19946;49.306;11.350;2022-07-10T16:32:50;10.77;;;10.57;;
595;SDS011;19946;49.306;11.350;2022-07-10T16:36:13;10.90;;;10.70;;
595;SDS011;19946;49.306;11.350;2022-07-10T16:39:46;10.40;;;10.20;;
595;SDS011;19946;49.306;11.350;2022-07-10T16:42:51;10.40;;;10.20;;
595;SDS011;19946;49.306;11.350;2022-07-10T16:51:12;10.20;;;10.00;;
595;SDS011;19946;49.306;11.350;2022-07-10T16:59:00;9.60;;;9.40;;
595;SDS011;19946;49.306;11.350;2022-07-10T17:05:54;9.20;;;9.10;;
595;SDS011;19946;49.306;11.350;2022-07-10T17:13:05;9.50;;;9.30;;
595;SDS011;19946;49.306;11.350;2022-07-10T17:16:05;10.00;;;9.80;;
595;SDS011;19946;49.306;11.350;2022-07-10T17:19:06;10.17;;;9.97;;
595;SDS011;19946;49.306;11.350;2022-07-10T17:22:06;9.70;;;9.50;;
595;SDS011;19946;49.306;11.350;2022-07-10T17:25:11;9.20;;;9.10;;
595;SDS011;19946;49.306;11.350;2022-07-10T17:28:12;9.30;;;9.20;;
595;SDS011;19946;49.306;11.350;2022-07-10T17:31:15;9.90;;;9.70;;
595;SDS011;19946;49.306;11.350;2022-07-10T17:34:15;9.40;;;9.20;;
595;SDS011;19946;49.306;11.350;2022-07-10T17:37:16;9.60;;;9.40;;
595;SDS011;19946;49.306;11.350;2022-07-10T17:40:16;9.60;;;9.40;;
595;SDS011;19946;49.306;11.350;2022-07-10T17:43:17;10.03;;;9.83;;
595;SDS011;19946;49.306;11.350;2022-07-10T17:46:17;9.80;;;9.60;;
595;SDS011;19946;49.306;11.350;2022-07-10T17:49:17;10.10;;;9.90;;
595;SDS011;19946;49.306;11.350;2022-07-10T17:52:18;9.90;;;9.70;;
595;SDS011;19946;49.306;11.350;2022-07-10T17:55:18;9.83;;;9.63;;
595;SDS011;19946;49.306;11.350;2022-07-10T17:58:19;9.70;;;9.50;;
595;SDS011;19946;49.306;11.350;2022-07-10T18:01:19;9.20;;;9.10;;
595;SDS011;19946;49.306;11.350;2022-07-10T18:04:20;9.70;;;9.50;;
595;SDS011;19946;49.306;11.350;2022-07-10T18:07:20;9.60;;;9.40;;
595;SDS011;19946;49.306;11.350;2022-07-10T18:10:21;9.00;;;8.90;;
595;SDS011;19946;49.306;11.350;2022-07-10T18:13:21;9.37;;;9.20;;
595;SDS011;19946;49.306;11.350;2022-07-10T18:16:22;9.00;;;8.90;;
595;SDS011;19946;49.306;11.350;2022-07-10T18:19:23;8.90;;;8.80;;
595;SDS011;19946;49.306;11.350;2022-07-10T18:22:24;9.00;;;8.90;;
595;SDS011;19946;49.306;11.350;2022-07-10T18:25:26;9.00;;;8.90;;
595;SDS011;19946;49.306;11.350;2022-07-10T18:28:27;8.40;;;8.30;;
595;SDS011;19946;49.306;11.350;2022-07-10T18:31:28;8.37;;;8.27;;
595;SDS011;19946;49.306;11.350;2022-07-10T18:34:28;8.60;;;8.50;;
595;SDS011;19946;49.306;11.350;2022-07-10T18:37:31;8.50;;;8.40;;
595;SDS011;19946;49.306;11.350;2022-07-10T18:40:31;8.37;;;8.27;;
595;SDS011;19946;49.306;11.350;2022-07-10T18:43:32;8.20;;;8.10;;
595;SDS011;19946;49.306;11.350;2022-07-10T18:46:33;8.57;;;8.47;;